createdAt,value
2022-10-01T00:09:16.600Z,21.27
2022-10-01T00:19:18.145Z,21.48
2022-10-01T00:29:19.432Z,21.92
2022-10-01T00:39:20.748Z,19.80
2022-10-01T00:49:22.095Z,21.40
2022-10-01T00:59:23.412Z,20.02
2022-10-01T01:09:24.752Z,18.13
2022-10-01T01:19:26.048Z,15.30
2022-10-01T01:29:27.384Z,14.30
2022-10-01T01:39:28.728Z,14.18
2022-10-01T01:49:30.076Z,13.57
2022-10-01T01:59:31.543Z,11.77
2022-10-01T02:09:32.870Z,9.10
2022-10-01T02:19:34.634Z,8.02
2022-10-01T02:29:35.910Z,7.25
2022-10-01T02:39:37.207Z,6.43
2022-10-01T02:49:41.364Z,9.77
2022-10-01T02:59:42.664Z,6.83
2022-10-01T03:09:43.990Z,6.20
2022-10-01T03:19:45.394Z,5.28
2022-10-01T03:29:46.676Z,5.60
2022-10-01T03:39:47.983Z,4.68
2022-10-01T03:49:49.286Z,5.40
2022-10-01T03:59:50.561Z,7.45
2022-10-01T04:09:51.847Z,4.45
2022-10-01T04:19:53.135Z,7.07
2022-10-01T04:29:55.524Z,7.32
2022-10-01T04:39:56.868Z,6.07
2022-10-01T04:49:58.160Z,5.53
2022-10-01T04:59:59.466Z,5.97
2022-10-01T05:10:00.796Z,7.47
2022-10-01T05:20:02.091Z,9.82
2022-10-01T05:30:03.717Z,6.13
2022-10-01T05:40:05.014Z,5.88
2022-10-01T05:50:06.383Z,5.35
2022-10-01T06:00:07.673Z,7.60
2022-10-01T06:10:09.286Z,12.30
2022-10-01T06:20:12.841Z,6.35
2022-10-01T06:30:14.617Z,7.50
2022-10-01T06:40:15.905Z,8.30
2022-10-01T06:50:17.118Z,4.47
2022-10-01T07:00:18.408Z,6.47
2022-10-01T07:10:20.936Z,4.63
2022-10-01T07:20:22.205Z,6.55
2022-10-01T07:30:24.015Z,7.35
2022-10-01T07:40:27.646Z,7.15
2022-10-01T07:50:30.588Z,8.55
2022-10-01T08:00:31.890Z,7.85
2022-10-01T08:10:36.555Z,8.25
2022-10-01T08:20:39.495Z,6.15
2022-10-01T08:30:41.051Z,5.25
2022-10-01T08:40:42.325Z,6.93
2022-10-01T08:50:43.841Z,9.18
2022-10-01T09:00:45.089Z,6.20
2022-10-01T09:10:46.499Z,6.68
2022-10-01T09:20:47.988Z,4.97
2022-10-01T09:30:49.912Z,6.55
2022-10-01T09:40:52.105Z,6.60
2022-10-01T09:50:58.982Z,4.97
2022-10-01T10:01:01.601Z,4.45
2022-10-01T10:11:02.889Z,5.18
2022-10-01T10:21:04.091Z,6.22
2022-10-01T10:31:05.373Z,6.70
2022-10-01T10:41:06.639Z,7.30
2022-10-01T10:51:08.170Z,4.30
2022-10-01T11:01:10.129Z,6.13
2022-10-01T11:11:11.429Z,8.10
2022-10-01T11:21:12.723Z,6.20
2022-10-01T11:31:14.265Z,4.93
2022-10-01T11:41:16.026Z,5.50
2022-10-01T11:51:17.352Z,3.08
2022-10-01T12:01:19.015Z,5.65
2022-10-01T12:11:20.291Z,3.05
2022-10-01T12:21:21.574Z,7.78
2022-10-01T12:31:22.900Z,4.25
2022-10-01T12:41:24.311Z,3.78
2022-10-01T12:51:25.569Z,3.83
2022-10-01T13:01:26.836Z,3.35
2022-10-01T13:11:28.124Z,3.25
2022-10-01T13:21:30.594Z,5.72
2022-10-01T13:31:33.333Z,3.65
2022-10-01T13:41:34.964Z,4.20
2022-10-01T13:51:36.522Z,5.10
2022-10-01T14:01:38.229Z,4.55
2022-10-01T14:11:58.451Z,7.05
2022-10-01T14:21:59.969Z,3.65
2022-10-01T14:32:01.262Z,5.13
2022-10-01T14:42:02.563Z,5.03
2022-10-01T14:52:03.933Z,6.13
2022-10-01T15:02:05.468Z,2.08
2022-10-01T15:12:07.160Z,3.13
2022-10-01T15:22:08.473Z,3.08
2022-10-01T15:32:09.910Z,3.35
2022-10-01T15:42:12.022Z,3.72
2022-10-01T15:52:33.148Z,7.10
2022-10-01T16:02:34.373Z,27.95
2022-10-01T16:12:36.548Z,9.68
2022-10-01T16:22:39.838Z,8.15
2022-10-01T16:32:41.138Z,4.38
2022-10-01T16:42:42.671Z,6.80
2022-10-01T16:52:43.935Z,5.13
2022-10-01T17:02:46.247Z,4.07
2022-10-01T17:12:47.849Z,7.07
2022-10-01T17:22:49.210Z,6.15
2022-10-01T17:32:50.506Z,5.05
2022-10-01T17:42:51.858Z,7.05
2022-10-01T17:52:53.434Z,9.20
2022-10-01T18:02:55.224Z,6.68
2022-10-01T18:12:57.642Z,4.93
2022-10-01T18:22:58.987Z,7.68
2022-10-01T18:33:01.510Z,6.65
2022-10-01T18:43:02.718Z,11.27
2022-10-01T18:53:04.085Z,6.85
2022-10-01T19:03:05.434Z,10.38
2022-10-01T19:13:06.796Z,7.50
2022-10-01T19:23:08.268Z,8.60
2022-10-01T19:33:09.497Z,5.60
2022-10-01T19:43:10.770Z,7.68
2022-10-01T19:53:12.051Z,7.78
2022-10-01T20:03:13.256Z,9.30
2022-10-01T20:13:14.540Z,9.82
2022-10-01T20:23:16.009Z,6.38
2022-10-01T20:33:20.096Z,7.93
2022-10-01T20:43:21.427Z,6.17
2022-10-01T20:53:22.674Z,8.45
2022-10-01T21:03:24.209Z,9.75
2022-10-01T21:13:26.046Z,7.45
2022-10-01T21:23:27.381Z,7.85
2022-10-01T21:33:28.766Z,7.10
2022-10-01T21:43:30.071Z,8.50
2022-10-01T21:53:31.886Z,8.48
2022-10-01T22:03:33.410Z,6.70
2022-10-01T22:13:34.702Z,7.00
2022-10-01T22:23:36.006Z,9.80
2022-10-01T22:33:37.736Z,10.13
2022-10-01T22:43:49.447Z,10.82
2022-10-01T22:53:50.663Z,13.48
2022-10-01T23:03:51.939Z,11.63
2022-10-01T23:13:53.382Z,8.70
2022-10-01T23:23:54.699Z,8.73
2022-10-01T23:33:55.925Z,7.90
2022-10-01T23:43:57.202Z,7.82
2022-10-01T23:53:58.527Z,12.32
